createdAt,value
2022-12-29T00:00:27.600Z,73.56
2022-12-29T00:02:55.531Z,73.60
2022-12-29T00:05:23.349Z,73.52
2022-12-29T00:07:52.566Z,73.59
2022-12-29T00:10:20.353Z,73.86
2022-12-29T00:13:05.860Z,73.66
2022-12-29T00:15:39.714Z,73.66
2022-12-29T00:18:08.273Z,73.60
2022-12-29T00:20:54.722Z,73.91
2022-12-29T00:23:41.528Z,74.16
2022-12-29T00:26:33.373Z,73.75
2022-12-29T00:29:18.940Z,73.74
2022-12-29T00:32:04.247Z,74.25
2022-12-29T00:34:49.900Z,74.21
2022-12-29T00:37:18.301Z,74.06
2022-12-29T00:40:04.979Z,73.93
2022-12-29T00:42:50.163Z,74.09
2022-12-29T00:45:18.220Z,73.96
2022-12-29T00:47:46.249Z,73.99
2022-12-29T00:50:13.078Z,74.03
2022-12-29T00:52:40.836Z,74.15
2022-12-29T00:55:10.328Z,74.26
2022-12-29T00:57:38.086Z,74.19
2022-12-29T01:00:06.723Z,74.19
2022-12-29T01:02:35.030Z,73.93
2022-12-29T01:05:02.889Z,73.98
2022-12-29T01:07:30.736Z,74.30
2022-12-29T01:10:13.979Z,74.02
2022-12-29T01:12:43.280Z,74.30
2022-12-29T01:15:13.508Z,74.30
2022-12-29T01:17:42.227Z,74.25
2022-12-29T01:20:11.764Z,74.26
2022-12-29T01:22:40.045Z,74.37
2022-12-29T01:25:08.714Z,74.09
2022-12-29T01:27:36.711Z,74.27
2022-12-29T01:30:07.303Z,74.24
2022-12-29T01:32:35.141Z,74.33
2022-12-29T01:35:02.918Z,73.93
2022-12-29T01:37:30.841Z,74.05
2022-12-29T01:39:59.005Z,74.12
2022-12-29T01:42:28.347Z,74.23
2022-12-29T01:44:58.042Z,74.12
2022-12-29T01:47:38.927Z,74.05
2022-12-29T01:50:11.708Z,73.99
2022-12-29T01:52:43.786Z,74.05
2022-12-29T01:55:12.802Z,74.02
2022-12-29T01:57:46.097Z,74.21
2022-12-29T02:00:16.205Z,74.05
2022-12-29T02:02:52.584Z,74.05
2022-12-29T02:05:26.921Z,74.01
2022-12-29T02:07:55.573Z,73.75
2022-12-29T02:10:26.714Z,73.87
2022-12-29T02:12:55.950Z,74.12
2022-12-29T02:15:31.439Z,74.17
2022-12-29T02:18:17.889Z,73.93
2022-12-29T02:21:37.857Z,73.94
2022-12-29T02:24:27.546Z,74.02
2022-12-29T02:27:26.319Z,74.00
2022-12-29T02:30:08.327Z,74.01
2022-12-29T02:32:47.887Z,74.01
2022-12-29T02:35:27.780Z,73.92
2022-12-29T02:38:05.359Z,74.00
2022-12-29T02:40:42.697Z,73.99
2022-12-29T02:43:26.652Z,74.14
2022-12-29T02:45:59.377Z,73.80
2022-12-29T02:48:34.901Z,73.98
2022-12-29T02:51:05.052Z,73.97
2022-12-29T02:53:53.676Z,73.88
2022-12-29T02:56:21.661Z,74.03
2022-12-29T02:58:49.811Z,73.85
2022-12-29T03:01:31.062Z,73.81
2022-12-29T03:04:14.400Z,74.11
2022-12-29T03:06:55.099Z,74.09
2022-12-29T03:09:31.353Z,73.85
2022-12-29T03:12:11.726Z,73.88
2022-12-29T03:15:06.171Z,74.03
2022-12-29T03:17:41.559Z,73.88
2022-12-29T03:20:15.920Z,74.01
2022-12-29T03:22:47.020Z,73.89
2022-12-29T03:25:18.961Z,73.99
2022-12-29T03:27:50.380Z,73.90
2022-12-29T03:30:19.474Z,74.00
2022-12-29T03:32:51.269Z,73.78
2022-12-29T03:35:24.007Z,73.92
2022-12-29T03:37:58.240Z,73.83
2022-12-29T03:40:28.590Z,73.84
2022-12-29T03:42:57.294Z,73.99
2022-12-29T03:45:25.147Z,74.02
2022-12-29T03:47:54.044Z,73.99
2022-12-29T03:50:23.196Z,74.02
2022-12-29T03:52:50.940Z,73.97
2022-12-29T03:55:18.692Z,74.06
2022-12-29T03:57:46.616Z,74.02
2022-12-29T04:00:15.280Z,73.97
2022-12-29T04:02:43.479Z,74.21
2022-12-29T04:05:11.420Z,74.15
2022-12-29T04:07:40.565Z,73.99
2022-12-29T04:10:08.808Z,74.00
2022-12-29T04:12:36.776Z,74.11
2022-12-29T04:15:05.059Z,74.16
2022-12-29T04:17:32.770Z,74.24
2022-12-29T04:20:14.605Z,73.92
2022-12-29T04:22:43.722Z,74.07
2022-12-29T04:25:12.149Z,73.86
2022-12-29T04:27:39.919Z,74.03
2022-12-29T04:30:08.945Z,73.76
2022-12-29T04:32:36.784Z,73.86
2022-12-29T04:35:04.964Z,73.84
2022-12-29T04:37:32.740Z,73.36
2022-12-29T04:40:01.868Z,73.51
2022-12-29T04:42:29.664Z,73.55
2022-12-29T04:44:57.444Z,73.30
2022-12-29T04:47:25.232Z,73.40
2022-12-29T04:49:53.042Z,73.29
2022-12-29T04:52:20.972Z,73.32
2022-12-29T04:54:48.750Z,73.09
2022-12-29T04:57:17.939Z,73.01
2022-12-29T04:59:46.386Z,72.95
2022-12-29T05:02:14.343Z,73.12
2022-12-29T05:04:42.357Z,73.29
2022-12-29T05:07:10.701Z,73.14
2022-12-29T05:09:38.627Z,73.24
2022-12-29T05:12:07.367Z,72.94
2022-12-29T05:14:36.753Z,73.13
2022-12-29T05:17:04.469Z,73.08
2022-12-29T05:19:32.404Z,73.00
2022-12-29T05:22:00.153Z,73.24
2022-12-29T05:24:27.981Z,73.21
2022-12-29T05:26:55.769Z,73.12
2022-12-29T05:29:23.677Z,72.94
2022-12-29T05:31:52.801Z,72.98
2022-12-29T05:34:20.583Z,73.05
2022-12-29T05:36:48.385Z,72.99
2022-12-29T05:39:16.172Z,72.87
2022-12-29T05:41:44.007Z,73.03
2022-12-29T05:44:12.335Z,72.96
2022-12-29T05:46:40.644Z,73.07
2022-12-29T05:49:09.873Z,72.92
2022-12-29T05:51:37.640Z,72.85
2022-12-29T05:54:05.842Z,72.88
2022-12-29T05:56:33.660Z,72.77
2022-12-29T05:59:01.437Z,72.84
2022-12-29T06:01:29.543Z,72.76
2022-12-29T06:03:57.582Z,72.79
2022-12-29T06:06:27.004Z,72.64
2022-12-29T06:08:54.919Z,72.55
2022-12-29T06:11:22.879Z,72.71
2022-12-29T06:13:50.900Z,72.54
2022-12-29T06:16:18.785Z,72.63
2022-12-29T06:18:46.586Z,72.50
2022-12-29T06:21:14.351Z,72.58
2022-12-29T06:23:43.772Z,72.37
2022-12-29T06:26:11.605Z,72.40
2022-12-29T06:28:39.386Z,72.39
2022-12-29T06:31:07.229Z,72.48
2022-12-29T06:33:35.044Z,72.36
2022-12-29T06:36:02.771Z,72.24
2022-12-29T06:38:30.657Z,72.19
2022-12-29T06:40:59.794Z,72.15
2022-12-29T06:43:28.351Z,72.30
2022-12-29T06:45:56.339Z,72.18
2022-12-29T06:48:24.342Z,72.33
2022-12-29T06:50:52.149Z,71.95
2022-12-29T06:53:19.945Z,72.04
2022-12-29T06:55:47.823Z,72.03
2022-12-29T06:58:16.991Z,71.85
2022-12-29T07:00:45.242Z,71.91
2022-12-29T07:03:13.279Z,71.77
2022-12-29T07:05:41.789Z,71.96
2022-12-29T07:08:09.628Z,71.83
2022-12-29T07:10:37.619Z,71.83
2022-12-29T07:13:05.482Z,71.53
2022-12-29T07:15:34.645Z,71.32
2022-12-29T07:18:02.442Z,71.30
2022-12-29T07:20:30.319Z,71.58
2022-12-29T07:22:58.119Z,71.19
2022-12-29T07:25:26.124Z,71.72
2022-12-29T07:27:54.185Z,71.07
2022-12-29T07:30:22.055Z,71.17
2022-12-29T07:32:51.217Z,70.99
2022-12-29T07:35:19.231Z,70.85
2022-12-29T07:37:47.064Z,71.01
2022-12-29T07:40:16.123Z,71.01
2022-12-29T07:42:43.991Z,71.14
2022-12-29T07:45:12.612Z,70.78
2022-12-29T07:47:40.418Z,70.95
2022-12-29T07:50:10.080Z,71.26
2022-12-29T07:52:37.976Z,70.97
2022-12-29T07:55:06.557Z,70.85
2022-12-29T07:57:34.350Z,70.76
2022-12-29T08:00:02.175Z,70.61
2022-12-29T08:02:30.755Z,70.34
2022-12-29T08:04:58.646Z,70.55
2022-12-29T08:07:27.816Z,70.55
2022-12-29T08:09:55.637Z,70.72
2022-12-29T08:12:23.385Z,70.45
2022-12-29T08:14:51.218Z,70.46
2022-12-29T08:17:18.965Z,70.57
2022-12-29T08:19:46.739Z,70.62
2022-12-29T08:22:15.775Z,70.27
2022-12-29T08:24:44.952Z,70.27
2022-12-29T08:27:19.898Z,70.04
2022-12-29T08:29:48.439Z,69.99
2022-12-29T08:32:16.674Z,70.09
2022-12-29T08:34:44.452Z,70.07
2022-12-29T08:37:12.471Z,70.28
2022-12-29T08:39:40.308Z,69.91
2022-12-29T08:42:09.474Z,70.21
2022-12-29T08:44:37.253Z,70.70
2022-12-29T08:47:05.082Z,70.36
2022-12-29T08:49:34.229Z,70.16
2022-12-29T08:52:02.060Z,69.58
2022-12-29T08:54:29.910Z,68.78
2022-12-29T08:56:57.723Z,68.30
2022-12-29T08:59:27.044Z,67.54
2022-12-29T09:01:54.920Z,67.16
2022-12-29T09:04:24.697Z,66.93
2022-12-29T09:06:52.649Z,66.79
2022-12-29T09:09:20.861Z,66.75
2022-12-29T09:11:48.629Z,67.31
2022-12-29T09:14:16.493Z,66.96
2022-12-29T09:17:03.133Z,67.57
2022-12-29T09:19:32.414Z,67.52
2022-12-29T09:22:01.081Z,67.05
2022-12-29T09:24:28.963Z,66.79
2022-12-29T09:26:56.897Z,66.64
2022-12-29T09:29:25.232Z,66.85
2022-12-29T09:31:54.438Z,64.86
2022-12-29T09:34:22.576Z,64.06
2022-12-29T09:36:50.556Z,63.98
2022-12-29T09:39:18.422Z,65.22
2022-12-29T09:41:54.608Z,64.55
2022-12-29T09:44:28.821Z,64.32
2022-12-29T09:46:59.953Z,65.09
2022-12-29T09:49:35.355Z,65.12
2022-12-29T09:52:08.517Z,65.54
2022-12-29T09:54:53.868Z,66.36
2022-12-29T09:57:30.829Z,66.91
2022-12-29T10:00:02.242Z,67.78
2022-12-29T10:02:38.961Z,67.80
2022-12-29T10:05:14.706Z,67.46
2022-12-29T10:07:51.811Z,68.62
2022-12-29T10:10:32.149Z,68.21
2022-12-29T10:13:12.922Z,68.50
2022-12-29T10:15:48.682Z,68.69
2022-12-29T10:18:41.881Z,68.00
2022-12-29T10:21:18.938Z,67.58
2022-12-29T10:23:50.235Z,66.89
2022-12-29T10:26:22.526Z,66.59
2022-12-29T10:28:53.575Z,66.12
2022-12-29T10:31:24.701Z,65.94
2022-12-29T10:33:59.334Z,65.37
2022-12-29T10:36:35.528Z,65.27
2022-12-29T10:39:16.543Z,65.63
2022-12-29T10:41:50.466Z,66.18
2022-12-29T10:44:20.781Z,66.62
2022-12-29T10:46:57.708Z,66.94
2022-12-29T10:49:30.476Z,67.43
2022-12-29T10:52:02.430Z,67.61
2022-12-29T10:54:34.735Z,67.88
2022-12-29T10:57:05.403Z,68.22
2022-12-29T10:59:36.367Z,68.56
2022-12-29T11:02:27.007Z,68.48
2022-12-29T11:05:04.731Z,68.62
2022-12-29T11:07:32.872Z,68.85
2022-12-29T11:10:19.522Z,68.65
2022-12-29T11:12:58.235Z,68.81
2022-12-29T11:15:26.318Z,68.84
2022-12-29T11:17:55.881Z,68.95
2022-12-29T11:20:35.782Z,69.12
2022-12-29T11:23:05.048Z,68.95
2022-12-29T11:25:33.220Z,69.24
2022-12-29T11:28:05.190Z,69.37
2022-12-29T11:30:34.062Z,69.30
2022-12-29T11:33:05.833Z,68.88
2022-12-29T11:35:37.822Z,69.25
2022-12-29T11:38:07.129Z,69.03
2022-12-29T11:40:41.143Z,68.83
2022-12-29T11:43:13.297Z,69.83
2022-12-29T11:45:48.906Z,69.08
2022-12-29T11:48:20.512Z,68.76
2022-12-29T11:50:55.144Z,68.81
2022-12-29T11:53:26.019Z,69.14
2022-12-29T11:55:56.906Z,69.53
2022-12-29T11:58:33.312Z,69.17
2022-12-29T12:01:06.139Z,69.25
2022-12-29T12:03:37.479Z,69.34
2022-12-29T12:06:11.943Z,68.96
2022-12-29T12:08:44.178Z,68.56
2022-12-29T12:11:16.524Z,68.20
2022-12-29T12:13:50.052Z,67.17
2022-12-29T12:16:22.625Z,66.25
2022-12-29T12:18:54.731Z,65.88
2022-12-29T12:21:31.480Z,65.75
2022-12-29T12:24:09.590Z,65.38
2022-12-29T12:26:39.605Z,65.53
2022-12-29T12:29:14.312Z,65.38
2022-12-29T12:31:48.080Z,66.12
2022-12-29T12:34:22.463Z,66.47
2022-12-29T12:37:16.481Z,66.55
2022-12-29T12:39:51.729Z,67.05
2022-12-29T12:42:36.752Z,67.08
2022-12-29T12:45:29.016Z,66.31
2022-12-29T12:48:10.387Z,66.44
2022-12-29T12:50:51.255Z,66.28
2022-12-29T12:53:33.534Z,65.76
2022-12-29T12:56:24.770Z,67.26
2022-12-29T12:59:00.892Z,66.96
2022-12-29T13:01:44.269Z,67.49
2022-12-29T13:04:35.368Z,66.94
2022-12-29T13:07:16.629Z,67.59
2022-12-29T13:10:02.949Z,67.52
2022-12-29T13:12:41.596Z,67.37
2022-12-29T13:15:25.554Z,67.22
2022-12-29T13:17:58.978Z,66.47
2022-12-29T13:20:33.772Z,65.60
2022-12-29T13:23:08.092Z,65.73
2022-12-29T13:25:44.762Z,64.89
2022-12-29T13:28:18.987Z,65.00
2022-12-29T13:30:55.550Z,65.30
2022-12-29T13:33:31.457Z,66.21
2022-12-29T13:36:04.453Z,66.23
2022-12-29T13:38:37.618Z,66.92
2022-12-29T13:41:11.042Z,67.29
2022-12-29T13:43:44.247Z,67.45
2022-12-29T13:46:15.878Z,67.52
2022-12-29T13:48:49.564Z,67.75
2022-12-29T13:51:22.656Z,68.21
2022-12-29T13:54:07.931Z,68.21
2022-12-29T13:56:42.333Z,68.38
2022-12-29T13:59:20.220Z,68.70
2022-12-29T14:01:56.432Z,68.97
2022-12-29T14:04:26.328Z,69.06
2022-12-29T14:07:03.258Z,69.05
2022-12-29T14:09:45.391Z,68.35
2022-12-29T14:12:34.494Z,67.83
2022-12-29T14:15:16.375Z,67.24
2022-12-29T14:17:45.029Z,66.78
2022-12-29T14:20:22.448Z,66.60
2022-12-29T14:23:02.647Z,66.70
2022-12-29T14:25:59.508Z,67.19
2022-12-29T14:28:30.152Z,67.46
2022-12-29T14:30:58.884Z,67.84
2022-12-29T14:33:30.083Z,67.84
2022-12-29T14:35:59.187Z,68.43
2022-12-29T14:38:31.982Z,68.41
2022-12-29T14:41:26.061Z,68.00
2022-12-29T14:43:59.669Z,68.41
2022-12-29T14:46:44.489Z,68.79
2022-12-29T14:49:18.457Z,68.67
2022-12-29T14:51:47.396Z,68.41
2022-12-29T14:54:51.418Z,68.64
2022-12-29T14:57:34.172Z,68.57
2022-12-29T15:00:16.591Z,68.43
2022-12-29T15:02:49.744Z,68.79
2022-12-29T15:05:33.041Z,68.80
2022-12-29T15:08:02.612Z,69.20
2022-12-29T15:10:39.372Z,69.11
2022-12-29T15:13:15.946Z,68.57
2022-12-29T15:15:45.281Z,68.69
2022-12-29T15:18:27.313Z,68.73
2022-12-29T15:20:58.275Z,68.46
2022-12-29T15:23:26.615Z,68.40
2022-12-29T15:25:57.587Z,67.81
2022-12-29T15:28:26.681Z,68.02
2022-12-29T15:30:58.153Z,67.92
2022-12-29T15:33:28.871Z,67.80
2022-12-29T15:35:58.974Z,68.22
2022-12-29T15:38:34.706Z,68.15
2022-12-29T15:41:08.880Z,67.80
2022-12-29T15:43:55.904Z,67.97
2022-12-29T15:46:25.578Z,67.95
2022-12-29T15:48:53.653Z,68.11
2022-12-29T15:51:27.034Z,68.89
2022-12-29T15:53:56.295Z,68.43
2022-12-29T15:56:24.248Z,68.08
2022-12-29T15:58:53.898Z,68.10
2022-12-29T16:01:30.952Z,68.14
2022-12-29T16:04:00.429Z,68.08
2022-12-29T16:06:31.658Z,67.87
2022-12-29T16:09:02.124Z,68.08
2022-12-29T16:11:35.097Z,68.16
2022-12-29T16:14:04.642Z,68.45
2022-12-29T16:16:38.242Z,68.24
2022-12-29T16:19:14.578Z,68.00
2022-12-29T16:21:43.853Z,67.73
2022-12-29T16:24:18.268Z,67.96
2022-12-29T16:26:50.989Z,67.96
2022-12-29T16:29:21.431Z,67.73
2022-12-29T16:32:01.315Z,67.73
2022-12-29T16:34:32.930Z,67.62
2022-12-29T16:37:01.963Z,67.76
2022-12-29T16:39:33.088Z,67.66
2022-12-29T16:42:01.266Z,68.14
2022-12-29T16:44:30.268Z,67.64
2022-12-29T16:47:22.926Z,67.91
2022-12-29T16:49:54.967Z,68.03
2022-12-29T16:52:27.393Z,68.00
2022-12-29T16:54:59.031Z,67.88
2022-12-29T16:57:30.289Z,67.85
2022-12-29T17:00:01.605Z,67.24
2022-12-29T17:02:33.659Z,67.70
2022-12-29T17:05:01.564Z,67.48
2022-12-29T17:07:30.492Z,67.11
2022-12-29T17:09:58.367Z,67.00
2022-12-29T17:12:29.196Z,67.48
2022-12-29T17:14:59.768Z,66.85
2022-12-29T17:17:34.630Z,67.49
2022-12-29T17:20:05.546Z,67.11
2022-12-29T17:22:34.310Z,66.55
2022-12-29T17:25:03.673Z,66.92
2022-12-29T17:27:35.552Z,66.75
2022-12-29T17:30:07.313Z,66.53
2022-12-29T17:32:36.536Z,66.96
2022-12-29T17:35:04.547Z,67.25
2022-12-29T17:37:36.912Z,66.36
2022-12-29T17:40:06.462Z,66.35
2022-12-29T17:42:37.054Z,65.99
2022-12-29T17:45:05.421Z,65.86
2022-12-29T17:47:33.179Z,65.25
2022-12-29T17:50:03.014Z,64.02
2022-12-29T17:52:30.810Z,64.01
2022-12-29T17:54:58.641Z,63.66
2022-12-29T17:57:26.431Z,63.52
2022-12-29T17:59:54.263Z,63.71
2022-12-29T18:02:29.313Z,64.24
2022-12-29T18:04:57.979Z,64.43
2022-12-29T18:07:35.632Z,64.61
2022-12-29T18:10:04.973Z,64.68
2022-12-29T18:12:40.253Z,64.69
2022-12-29T18:15:17.656Z,65.42
2022-12-29T18:17:45.544Z,65.12
2022-12-29T18:20:13.369Z,65.00
2022-12-29T18:22:42.629Z,65.56
2022-12-29T18:25:23.844Z,65.45
2022-12-29T18:27:51.773Z,65.30
2022-12-29T18:30:20.185Z,65.54
2022-12-29T18:32:47.993Z,65.59
2022-12-29T18:35:20.201Z,65.94
2022-12-29T18:37:49.369Z,65.67
2022-12-29T18:40:17.186Z,65.75
2022-12-29T18:42:45.005Z,66.01
2022-12-29T18:45:18.725Z,66.30
2022-12-29T18:47:46.559Z,66.05
2022-12-29T18:50:14.996Z,66.10
2022-12-29T18:52:42.993Z,65.98
2022-12-29T18:55:17.687Z,66.35
2022-12-29T18:57:45.744Z,66.24
2022-12-29T19:00:16.698Z,66.19
2022-12-29T19:02:45.019Z,65.95
2022-12-29T19:05:22.953Z,66.50
2022-12-29T19:07:51.488Z,66.63
2022-12-29T19:10:22.174Z,66.58
2022-12-29T19:12:50.785Z,66.56
2022-12-29T19:15:25.498Z,66.67
2022-12-29T19:18:32.359Z,66.52
2022-12-29T19:20:44.181Z,66.25
2022-12-29T19:23:14.213Z,65.44
2022-12-29T19:25:44.549Z,64.63
2022-12-29T19:28:19.461Z,64.39
2022-12-29T19:30:52.232Z,63.17
2022-12-29T19:33:20.838Z,63.19
2022-12-29T19:35:48.965Z,63.35
2022-12-29T19:38:16.800Z,63.28
2022-12-29T19:40:48.236Z,64.04
2022-12-29T19:43:16.626Z,63.98
2022-12-29T19:45:46.017Z,64.31
2022-12-29T19:48:15.785Z,63.90
2022-12-29T19:50:44.462Z,64.22
2022-12-29T19:53:13.438Z,64.71
2022-12-29T19:55:43.306Z,64.90
2022-12-29T19:58:12.544Z,65.02
2022-12-29T20:00:41.096Z,65.50
2022-12-29T20:03:09.285Z,65.27
2022-12-29T20:05:37.334Z,65.47
2022-12-29T20:08:05.486Z,64.97
2022-12-29T20:10:33.470Z,64.62
2022-12-29T20:13:01.331Z,65.17
2022-12-29T20:15:30.524Z,65.40
2022-12-29T20:18:15.011Z,65.46
2022-12-29T20:20:43.444Z,65.34
2022-12-29T20:23:11.314Z,65.56
2022-12-29T20:25:47.732Z,65.27
2022-12-29T20:28:16.829Z,65.48
2022-12-29T20:30:46.099Z,64.36
2022-12-29T20:33:14.257Z,64.93
2022-12-29T20:35:42.144Z,65.28
2022-12-29T20:38:09.955Z,65.01
2022-12-29T20:40:44.103Z,64.66
2022-12-29T20:43:14.869Z,65.04
2022-12-29T20:45:43.132Z,65.01
2022-12-29T20:48:12.449Z,65.27
2022-12-29T20:50:40.508Z,65.80
2022-12-29T20:53:08.504Z,65.33
2022-12-29T20:55:38.010Z,65.14
2022-12-29T20:58:25.241Z,65.04
2022-12-29T21:00:53.899Z,65.33
2022-12-29T21:03:24.703Z,65.54
2022-12-29T21:05:53.708Z,65.88
2022-12-29T21:08:22.178Z,65.81
2022-12-29T21:10:51.084Z,65.90
2022-12-29T21:13:19.246Z,66.23
2022-12-29T21:15:47.477Z,65.88
2022-12-29T21:18:15.396Z,66.07
2022-12-29T21:20:44.519Z,66.12
2022-12-29T21:23:12.296Z,65.44
2022-12-29T21:25:44.856Z,65.70
2022-12-29T21:28:13.196Z,65.73
2022-12-29T21:30:41.944Z,65.71
2022-12-29T21:33:10.227Z,65.35
2022-12-29T21:35:38.784Z,65.62
2022-12-29T21:38:08.502Z,65.70
2022-12-29T21:40:38.421Z,65.77
2022-12-29T21:43:06.631Z,66.04
2022-12-29T21:45:34.236Z,65.52
2022-12-29T21:48:21.114Z,65.81
2022-12-29T21:51:08.789Z,65.29
2022-12-29T21:53:39.680Z,65.80
2022-12-29T21:56:09.060Z,65.35
2022-12-29T21:58:54.518Z,65.33
2022-12-29T22:01:37.122Z,65.81
2022-12-29T22:04:22.700Z,65.35
2022-12-29T22:07:07.914Z,65.52
2022-12-29T22:09:54.939Z,65.41
2022-12-29T22:12:40.319Z,65.05
2022-12-29T22:15:08.856Z,65.25
2022-12-29T22:17:37.852Z,65.61
2022-12-29T22:20:07.278Z,64.87
2022-12-29T22:22:35.205Z,65.38
2022-12-29T22:25:04.568Z,65.92
2022-12-29T22:27:32.353Z,65.22
2022-12-29T22:30:00.155Z,64.82
2022-12-29T22:32:28.125Z,65.48
2022-12-29T22:34:56.513Z,64.13
2022-12-29T22:37:24.808Z,64.68
2022-12-29T22:39:52.621Z,65.17
2022-12-29T22:42:21.823Z,64.64
2022-12-29T22:44:49.701Z,65.02
2022-12-29T22:47:17.490Z,64.89
2022-12-29T22:49:45.264Z,64.99
2022-12-29T22:52:14.516Z,65.13
2022-12-29T22:54:42.405Z,65.21
2022-12-29T22:57:10.228Z,65.02
2022-12-29T22:59:40.085Z,65.40
2022-12-29T23:02:07.974Z,65.54
2022-12-29T23:07:25.277Z,65.40
2022-12-29T23:09:53.114Z,65.25
2022-12-29T23:12:20.897Z,65.56
2022-12-29T23:14:50.016Z,65.47
2022-12-29T23:17:17.784Z,65.89
2022-12-29T23:19:45.583Z,65.78
2022-12-29T23:22:13.392Z,65.22
2022-12-29T23:24:41.197Z,65.64
2022-12-29T23:27:09.052Z,65.80
2022-12-29T23:29:37.227Z,65.71
2022-12-29T23:32:06.462Z,65.50
2022-12-29T23:34:34.296Z,65.85
2022-12-29T23:37:02.152Z,65.98
2022-12-29T23:39:30.024Z,66.05
2022-12-29T23:41:58.260Z,65.71
2022-12-29T23:44:26.171Z,65.67
2022-12-29T23:46:53.961Z,66.03
2022-12-29T23:49:23.160Z,65.49
2022-12-29T23:51:50.989Z,65.86
2022-12-29T23:54:18.991Z,66.06
2022-12-29T23:56:46.870Z,65.79
2022-12-29T23:59:14.638Z,65.88
